Time;durP1;ratioP1;P1;durP2;ratioP2;P2;SDS_P1;SDS_P2;PMS_P1;PMS_P2;Temp;Humidity;BMP_temperature;BMP_pressure;BME280_temperature;BME280_humidity;BME280_pressure;Samples;Min_cycle;Max_cycle;Signal;HPM_P1;HPM_P2
2022/07/07 00:01:48;;;;;;;15.23;10.70;;;;;;;;;;5113110;28;20145;-67
2022/07/07 00:04:14;;;;;;;15.25;10.65;;;;;;;;;;5113101;28;20059;-67
2022/07/07 00:06:40;;;;;;;14.90;11.25;;;;;;;;;;5112736;28;20039;-67
2022/07/07 00:09:06;;;;;;;14.80;10.48;;;;;;;;;;5113516;28;20123;-67
2022/07/07 00:11:33;;;;;;;17.30;10.45;;;;;;;;;;5113223;28;20047;-67
2022/07/07 00:13:59;;;;;;;18.02;11.32;;;;;;;;;;5112668;28;20032;-67
2022/07/07 00:16:25;;;;;;;17.85;11.02;;;;;;;;;;5113296;28;20039;-67
2022/07/07 00:18:51;;;;;;;16.10;10.60;;;;;;;;;;5113098;28;20047;-67
2022/07/07 00:21:17;;;;;;;14.35;10.15;;;;;;;;;;5112375;28;20039;-67
2022/07/07 00:23:43;;;;;;;14.77;10.25;;;;;;;;;;5113043;28;20046;-67
2022/07/07 00:26:09;;;;;;;14.18;10.43;;;;;;;;;;5121649;27;20035;-67
2022/07/07 00:28:35;;;;;;;12.50;9.50;;;;;;;;;;5131569;27;20049;-67
2022/07/07 00:31:02;;;;;;;15.85;10.52;;;;;;;;;;5133459;27;20043;-67
2022/07/07 00:33:28;;;;;;;11.57;8.85;;;;;;;;;;5133442;27;20035;-67
2022/07/07 00:35:54;;;;;;;13.10;9.73;;;;;;;;;;5132768;27;20473;-67
2022/07/07 00:38:20;;;;;;;15.90;10.35;;;;;;;;;;5133427;27;20046;-67
2022/07/07 00:40:50;;;;;;;15.70;9.30;;;;;;;;;;5133217;27;20084;-67
2022/07/07 00:43:17;;;;;;;14.52;9.20;;;;;;;;;;5132175;27;20043;-67
2022/07/07 00:45:47;;;;;;;15.77;9.52;;;;;;;;;;5133181;27;20118;-67
2022/07/07 00:48:13;;;;;;;12.52;8.98;;;;;;;;;;5133344;27;20091;-67
2022/07/07 00:50:39;;;;;;;12.63;8.65;;;;;;;;;;5132267;27;20086;-67
2022/07/07 00:53:05;;;;;;;11.98;8.23;;;;;;;;;;5133153;27;20046;-67
2022/07/07 00:55:31;;;;;;;15.82;8.70;;;;;;;;;;5131719;27;20067;-67
2022/07/07 00:57:57;;;;;;;13.20;8.50;;;;;;;;;;5132599;27;20477;-67
2022/07/07 01:00:23;;;;;;;15.40;8.40;;;;;;;;;;5133107;27;20126;-67
2022/07/07 01:02:50;;;;;;;13.20;8.18;;;;;;;;;;5132620;27;20091;-66
2022/07/07 01:05:16;;;;;;;13.95;8.25;;;;;;;;;;5131860;27;20508;-67
2022/07/07 01:07:43;;;;;;;17.65;9.43;;;;;;;;;;5132552;27;20049;-67
2022/07/07 01:10:09;;;;;;;10.57;8.35;;;;;;;;;;5132904;27;20035;-67
2022/07/07 01:12:37;;;;;;;13.52;8.13;;;;;;;;;;5131701;27;20077;-67
2022/07/07 01:15:07;;;;;;;12.30;8.23;;;;;;;;;;5132795;27;20536;-67
2022/07/07 01:17:33;;;;;;;15.15;7.43;;;;;;;;;;5131383;27;20484;-67
2022/07/07 01:19:59;;;;;;;11.32;7.68;;;;;;;;;;5131976;27;20504;-67
2022/07/07 01:22:28;;;;;;;12.57;7.18;;;;;;;;;;5132541;27;20062;-67
2022/07/07 01:24:54;;;;;;;11.10;7.40;;;;;;;;;;5132595;27;20085;-67
2022/07/07 01:27:21;;;;;;;12.30;6.88;;;;;;;;;;5112965;27;20067;-67
2022/07/07 01:29:51;;;;;;;13.70;6.65;;;;;;;;;;5111532;28;20518;-67
2022/07/07 01:32:18;;;;;;;8.65;6.28;;;;;;;;;;5112000;28;20470;-67
2022/07/07 01:34:45;;;;;;;11.40;5.05;;;;;;;;;;5111393;28;20046;-67
2022/07/07 01:37:11;;;;;;;7.93;5.30;;;;;;;;;;5110814;28;20118;-67
2022/07/07 01:39:38;;;;;;;7.82;4.80;;;;;;;;;;5112045;28;20114;-67
2022/07/07 01:42:04;;;;;;;7.30;4.07;;;;;;;;;;5110960;28;20062;-67
2022/07/07 01:44:38;;;;;;;8.15;3.75;;;;;;;;;;5110655;28;20172;-67
2022/07/07 01:47:05;;;;;;;8.98;4.50;;;;;;;;;;5110274;28;20461;-67
2022/07/07 01:49:32;;;;;;;5.13;3.80;;;;;;;;;;5111132;28;20644;-67
2022/07/07 01:51:58;;;;;;;7.82;4.00;;;;;;;;;;5111889;28;20059;-67
2022/07/07 01:54:25;;;;;;;6.78;3.88;;;;;;;;;;5110557;28;20048;-67
2022/07/07 01:56:51;;;;;;;6.57;3.90;;;;;;;;;;5109775;28;20048;-67
2022/07/07 01:59:17;;;;;;;7.40;3.78;;;;;;;;;;5111840;28;20044;-67
2022/07/07 02:01:43;;;;;;;7.57;4.38;;;;;;;;;;5111408;28;20359;-67
2022/07/07 02:04:09;;;;;;;7.45;4.07;;;;;;;;;;5110764;28;20047;-67
2022/07/07 02:06:37;;;;;;;10.00;4.47;;;;;;;;;;5111584;28;20077;-67
2022/07/07 02:09:04;;;;;;;6.82;4.05;;;;;;;;;;5111416;28;20035;-67
2022/07/07 02:11:31;;;;;;;10.88;4.28;;;;;;;;;;5111036;28;20706;-67
2022/07/07 02:13:57;;;;;;;6.47;3.80;;;;;;;;;;5111798;28;20474;-67
2022/07/07 02:16:24;;;;;;;4.97;3.95;;;;;;;;;;5111399;28;20043;-67
2022/07/07 02:18:53;;;;;;;7.60;3.92;;;;;;;;;;5110902;28;20523;-67
2022/07/07 02:21:19;;;;;;;6.80;3.17;;;;;;;;;;5111849;28;20043;-67
2022/07/07 02:23:46;;;;;;;5.07;3.10;;;;;;;;;;5111804;28;20724;-66
2022/07/07 02:26:12;;;;;;;4.63;3.30;;;;;;;;;;5119726;28;20062;-66
2022/07/07 02:28:39;;;;;;;4.95;3.08;;;;;;;;;;5132196;27;20370;-67
2022/07/07 02:31:05;;;;;;;8.18;3.45;;;;;;;;;;5132113;27;20095;-67
2022/07/07 02:33:31;;;;;;;7.70;3.65;;;;;;;;;;5131480;27;20538;-67
2022/07/07 02:35:57;;;;;;;6.90;3.45;;;;;;;;;;5131968;27;20088;-67
2022/07/07 02:38:24;;;;;;;7.20;3.58;;;;;;;;;;5132046;27;20538;-67
2022/07/07 02:40:50;;;;;;;5.10;3.30;;;;;;;;;;5131784;27;20711;-67
2022/07/07 02:43:17;;;;;;;5.50;3.25;;;;;;;;;;5135461;27;20039;-67
2022/07/07 02:45:47;;;;;;;8.50;3.75;;;;;;;;;;5135626;27;20123;-67
2022/07/07 02:48:15;;;;;;;7.68;3.45;;;;;;;;;;5134944;27;20773;-67
2022/07/07 02:50:41;;;;;;;8.40;3.80;;;;;;;;;;5135631;27;20551;-67
2022/07/07 02:53:08;;;;;;;6.28;3.38;;;;;;;;;;5135481;27;20427;-67
2022/07/07 02:55:34;;;;;;;11.15;4.63;;;;;;;;;;5134795;27;20508;-67
2022/07/07 02:58:01;;;;;;;8.10;3.88;;;;;;;;;;5135441;27;20043;-67
2022/07/07 03:00:27;;;;;;;9.35;3.83;;;;;;;;;;5135320;27;20437;-67
2022/07/07 03:02:54;;;;;;;7.28;3.60;;;;;;;;;;5134539;27;20043;-67
2022/07/07 03:05:20;;;;;;;6.60;3.10;;;;;;;;;;5134841;27;20142;-67
2022/07/07 03:07:47;;;;;;;9.98;3.30;;;;;;;;;;5135233;27;20559;-67
2022/07/07 03:10:13;;;;;;;10.13;3.13;;;;;;;;;;5134589;27;20035;-67
2022/07/07 03:12:39;;;;;;;6.88;3.00;;;;;;;;;;5135134;27;20599;-67
2022/07/07 03:15:06;;;;;;;8.13;3.50;;;;;;;;;;5135055;27;20500;-67
2022/07/07 03:17:32;;;;;;;6.38;2.95;;;;;;;;;;5134627;27;20054;-67
2022/07/07 03:19:58;;;;;;;13.52;3.28;;;;;;;;;;5134638;27;20039;-67
2022/07/07 03:22:24;;;;;;;8.57;2.83;;;;;;;;;;5134951;27;20047;-66
2022/07/07 03:24:50;;;;;;;13.05;3.20;;;;;;;;;;5134893;27;20035;-66
2022/07/07 03:27:16;;;;;;;9.50;3.03;;;;;;;;;;5115891;27;20036;-66
2022/07/07 03:29:42;;;;;;;9.85;2.72;;;;;;;;;;5114303;28;20074;-66
2022/07/07 03:32:09;;;;;;;9.82;2.72;;;;;;;;;;5113777;28;20040;-66
2022/07/07 03:34:36;;;;;;;6.72;3.08;;;;;;;;;;5113419;28;20084;-66
2022/07/07 03:37:02;;;;;;;8.63;2.75;;;;;;;;;;5114060;28;20047;-66
2022/07/07 03:39:28;;;;;;;7.72;2.80;;;;;;;;;;5114014;27;20428;-66
2022/07/07 03:41:54;;;;;;;10.38;2.78;;;;;;;;;;5112875;28;20127;-66
2022/07/07 03:44:20;;;;;;;9.35;2.67;;;;;;;;;;5113783;28;20393;-66
2022/07/07 03:46:46;;;;;;;9.68;2.63;;;;;;;;;;5113851;28;20614;-66
2022/07/07 03:49:12;;;;;;;10.18;2.88;;;;;;;;;;5113255;28;20068;-66
2022/07/07 03:51:38;;;;;;;8.73;2.53;;;;;;;;;;5113109;27;20047;-66
2022/07/07 03:54:04;;;;;;;9.60;2.42;;;;;;;;;;5113755;28;20046;-67
2022/07/07 03:56:30;;;;;;;6.47;2.30;;;;;;;;;;5113108;28;20523;-67
2022/07/07 03:58:57;;;;;;;11.10;2.55;;;;;;;;;;5113247;28;20061;-67
2022/07/07 04:01:23;;;;;;;10.52;2.60;;;;;;;;;;5113370;28;20040;-67
2022/07/07 04:03:49;;;;;;;11.68;2.20;;;;;;;;;;5112570;28;20047;-67
2022/07/07 04:06:15;;;;;;;10.48;2.10;;;;;;;;;;5113430;28;20059;-67
2022/07/07 04:08:41;;;;;;;9.35;2.22;;;;;;;;;;5113509;28;20450;-67
2022/07/07 04:11:07;;;;;;;11.38;2.05;;;;;;;;;;5112574;28;20046;-67
2022/07/07 04:13:33;;;;;;;10.25;2.30;;;;;;;;;;5113270;28;20036;-67
2022/07/07 04:15:59;;;;;;;14.57;2.30;;;;;;;;;;5113016;27;20039;-67
2022/07/07 04:18:25;;;;;;;7.45;1.83;;;;;;;;;;5112270;28;20651;-67
2022/07/07 04:20:52;;;;;;;7.75;1.70;;;;;;;;;;5113224;28;20040;-67
2022/07/07 04:23:18;;;;;;;8.02;1.73;;;;;;;;;;5113178;28;20417;-67
2022/07/07 04:25:44;;;;;;;4.72;0.98;;;;;;;;;;5117591;27;20043;-66
2022/07/07 04:28:10;;;;;;;8.40;1.60;;;;;;;;;;5133090;27;20530;-66
2022/07/07 04:30:36;;;;;;;3.83;0.90;;;;;;;;;;5133621;27;20118;-66
2022/07/07 04:33:02;;;;;;;6.78;1.08;;;;;;;;;;5132655;27;20126;-66
2022/07/07 04:35:28;;;;;;;9.50;1.20;;;;;;;;;;5133350;27;20552;-66
2022/07/07 04:37:54;;;;;;;4.93;1.30;;;;;;;;;;5133411;27;20043;-66
2022/07/07 04:40:21;;;;;;;7.03;1.58;;;;;;;;;;5132584;27;20031;-66
2022/07/07 04:42:47;;;;;;;6.93;1.23;;;;;;;;;;5133093;27;20431;-66
2022/07/07 04:45:13;;;;;;;7.22;1.42;;;;;;;;;;5133084;27;20031;-66
2022/07/07 04:47:40;;;;;;;4.22;1.23;;;;;;;;;;5132514;27;20043;-66
2022/07/07 04:50:07;;;;;;;6.65;1.40;;;;;;;;;;5132943;27;20034;-66
2022/07/07 04:52:33;;;;;;;5.70;1.40;;;;;;;;;;5132912;27;20100;-66
2022/07/07 04:54:59;;;;;;;6.68;1.45;;;;;;;;;;5132020;27;20050;-66
2022/07/07 04:57:26;;;;;;;7.22;1.02;;;;;;;;;;5132738;27;20047;-66
2022/07/07 04:59:52;;;;;;;7.97;1.20;;;;;;;;;;5132975;27;20043;-66
2022/07/07 05:02:18;;;;;;;8.23;1.75;;;;;;;;;;5132005;27;20043;-66
2022/07/07 05:04:44;;;;;;;5.03;0.88;;;;;;;;;;5131705;27;20047;-66
2022/07/07 05:07:11;;;;;;;6.85;1.00;;;;;;;;;;5132899;27;20430;-67
2022/07/07 05:09:37;;;;;;;6.68;0.90;;;;;;;;;;5132494;27;20035;-67
2022/07/07 05:12:03;;;;;;;5.20;1.00;;;;;;;;;;5132788;27;20087;-67
2022/07/07 05:14:29;;;;;;;3.78;0.80;;;;;;;;;;5132981;27;20045;-66
2022/07/07 05:16:56;;;;;;;3.42;0.80;;;;;;;;;;5132202;27;20039;-67
2022/07/07 05:19:22;;;;;;;8.88;1.58;;;;;;;;;;5132944;27;20994;-67
2022/07/07 05:21:49;;;;;;;4.63;0.88;;;;;;;;;;5132556;27;20039;-67
2022/07/07 05:24:15;;;;;;;3.58;1.02;;;;;;;;;;5131609;27;20043;-67
2022/07/07 05:26:41;;;;;;;5.40;1.20;;;;;;;;;;5118907;27;20044;-67
2022/07/07 05:29:07;;;;;;;5.88;1.05;;;;;;;;;;5112050;28;20102;-67
2022/07/07 05:31:33;;;;;;;8.57;1.90;;;;;;;;;;5110996;28;20040;-67
2022/07/07 05:33:59;;;;;;;6.82;1.88;;;;;;;;;;5112250;28;20081;-67
2022/07/07 05:36:25;;;;;;;7.45;1.75;;;;;;;;;;5111916;28;20046;-67
2022/07/07 05:38:51;;;;;;;8.95;1.40;;;;;;;;;;5111700;28;20070;-67
2022/07/07 05:41:18;;;;;;;8.68;1.40;;;;;;;;;;5110420;28;20043;-67
2022/07/07 05:43:44;;;;;;;7.00;1.33;;;;;;;;;;5111836;28;20039;-67
2022/07/07 05:46:11;;;;;;;7.35;1.65;;;;;;;;;;5111339;28;20103;-67
2022/07/07 05:48:37;;;;;;;9.60;1.27;;;;;;;;;;5112204;28;20045;-67
2022/07/07 05:51:04;;;;;;;3.80;1.00;;;;;;;;;;5111486;28;20039;-67
2022/07/07 05:53:30;;;;;;;11.38;1.42;;;;;;;;;;5111319;28;20040;-67
2022/07/07 05:55:57;;;;;;;7.70;1.63;;;;;;;;;;5111619;28;20048;-67
2022/07/07 05:58:23;;;;;;;9.52;1.42;;;;;;;;;;5111839;28;20092;-67
2022/07/07 06:00:49;;;;;;;6.55;1.40;;;;;;;;;;5110975;28;20084;-67
2022/07/07 06:03:15;;;;;;;6.72;1.23;;;;;;;;;;5111558;28;20044;-67
2022/07/07 06:05:41;;;;;;;5.47;1.23;;;;;;;;;;5122167;27;20054;-67
2022/07/07 06:08:08;;;;;;;8.38;1.40;;;;;;;;;;5126330;27;20048;-68
2022/07/07 06:10:34;;;;;;;9.02;1.85;;;;;;;;;;5119383;27;20039;-68
2022/07/07 06:13:00;;;;;;;9.93;1.60;;;;;;;;;;5118560;28;20036;-67
2022/07/07 06:15:27;;;;;;;10.77;2.00;;;;;;;;;;5147771;27;20049;-67
2022/07/07 06:17:54;;;;;;;10.48;1.65;;;;;;;;;;5156589;27;20034;-67
2022/07/07 06:20:20;;;;;;;9.43;1.85;;;;;;;;;;5156657;27;20035;-67
2022/07/07 06:22:46;;;;;;;6.45;1.63;;;;;;;;;;5155694;27;20035;-67
2022/07/07 06:25:12;;;;;;;9.98;2.08;;;;;;;;;;5153733;27;20434;-68
2022/07/07 06:27:39;;;;;;;11.23;1.75;;;;;;;;;;5151370;27;20038;-67
2022/07/07 06:30:05;;;;;;;6.78;1.40;;;;;;;;;;5147931;27;20535;-68
2022/07/07 06:32:32;;;;;;;9.40;1.67;;;;;;;;;;5140323;27;20751;-67
2022/07/07 06:34:58;;;;;;;6.68;1.60;;;;;;;;;;5154575;27;20042;-67
2022/07/07 06:37:24;;;;;;;8.52;1.90;;;;;;;;;;5155462;27;20688;-67
2022/07/07 06:39:50;;;;;;;9.38;1.75;;;;;;;;;;5155988;27;20038;-67
2022/07/07 06:42:16;;;;;;;6.63;1.20;;;;;;;;;;5155506;27;20042;-68
2022/07/07 06:44:42;;;;;;;9.13;1.63;;;;;;;;;;5142839;27;20490;-68
2022/07/07 06:47:09;;;;;;;11.80;2.35;;;;;;;;;;5126601;27;20031;-68
2022/07/07 06:49:35;;;;;;;9.10;1.70;;;;;;;;;;5141346;27;20111;-68
2022/07/07 06:52:01;;;;;;;12.88;1.33;;;;;;;;;;5131841;27;20035;-68
2022/07/07 06:54:27;;;;;;;6.80;1.60;;;;;;;;;;5124058;27;20490;-68
2022/07/07 06:56:53;;;;;;;5.82;1.17;;;;;;;;;;5155905;27;20034;-67
2022/07/07 06:59:19;;;;;;;6.93;1.13;;;;;;;;;;5126228;27;20047;-67
2022/07/07 07:01:45;;;;;;;6.22;1.20;;;;;;;;;;5130599;27;20072;-67
2022/07/07 07:04:13;;;;;;;7.43;1.40;;;;;;;;;;5124333;27;20410;-67
2022/07/07 07:06:40;;;;;;;5.82;1.00;;;;;;;;;;5150358;27;20462;-67
2022/07/07 07:09:06;;;;;;;5.95;0.95;;;;;;;;;;5132335;27;20039;-67
2022/07/07 07:11:32;;;;;;;8.60;1.58;;;;;;;;;;5137628;27;20054;-67
2022/07/07 07:14:01;;;;;;;2.22;0.77;;;;;;;;;;5133077;27;20092;-68
2022/07/07 07:16:28;;;;;;;3.38;1.00;;;;;;;;;;5135302;27;20429;-67
2022/07/07 07:18:54;;;;;;;2.00;0.90;;;;;;;;;;5137046;27;20058;-67
2022/07/07 07:21:20;;;;;;;3.05;1.00;;;;;;;;;;5126558;27;20458;-67
2022/07/07 07:23:46;;;;;;;2.75;0.98;;;;;;;;;;5132698;27;20117;-67
2022/07/07 07:26:12;;;;;;;5.05;1.08;;;;;;;;;;5134354;27;20073;-67
2022/07/07 07:28:38;;;;;;;5.88;0.95;;;;;;;;;;5144620;27;20035;-66
2022/07/07 07:31:04;;;;;;;2.92;1.00;;;;;;;;;;5140608;27;20035;-67
2022/07/07 07:33:31;;;;;;;6.15;0.93;;;;;;;;;;5148772;27;20070;-67
2022/07/07 07:35:57;;;;;;;5.85;1.42;;;;;;;;;;5144721;27;20043;-67
2022/07/07 07:38:23;;;;;;;6.53;0.70;;;;;;;;;;5147173;27;20109;-66
2022/07/07 07:40:49;;;;;;;6.88;0.82;;;;;;;;;;5147055;27;20122;-67
2022/07/07 07:43:15;;;;;;;6.68;1.10;;;;;;;;;;5138284;27;20496;-67
2022/07/07 07:45:41;;;;;;;7.28;0.90;;;;;;;;;;5145682;27;20054;-66
2022/07/07 07:48:07;;;;;;;5.03;0.82;;;;;;;;;;5143769;27;20389;-67
2022/07/07 07:50:33;;;;;;;7.18;0.80;;;;;;;;;;5147905;27;20038;-67
2022/07/07 07:52:59;;;;;;;4.55;1.05;;;;;;;;;;5146097;27;20114;-67
2022/07/07 07:55:26;;;;;;;3.45;0.65;;;;;;;;;;5147708;27;20118;-67
2022/07/07 07:57:52;;;;;;;2.60;0.60;;;;;;;;;;5137295;27;20038;-67
2022/07/07 08:00:20;;;;;;;2.50;0.60;;;;;;;;;;5142408;27;20119;-67
2022/07/07 08:02:46;;;;;;;1.77;0.63;;;;;;;;;;5147926;27;20099;-67
2022/07/07 08:05:13;;;;;;;6.07;0.73;;;;;;;;;;5145182;27;20050;-67
2022/07/07 08:07:40;;;;;;;2.58;0.50;;;;;;;;;;5144401;27;20485;-68
2022/07/07 08:10:06;;;;;;;2.53;0.65;;;;;;;;;;5141660;27;20039;-67
2022/07/07 08:12:32;;;;;;;4.68;0.88;;;;;;;;;;5124815;27;20035;-67
2022/07/07 08:14:58;;;;;;;4.53;0.65;;;;;;;;;;5124038;27;20405;-67
2022/07/07 08:17:25;;;;;;;3.38;0.90;;;;;;;;;;5150035;27;20463;-67
2022/07/07 08:19:51;;;;;;;3.15;0.70;;;;;;;;;;5142070;27;20096;-67
2022/07/07 08:22:17;;;;;;;6.03;1.20;;;;;;;;;;5132772;27;20055;-67
2022/07/07 08:24:43;;;;;;;4.75;1.05;;;;;;;;;;5127182;27;20039;-67
2022/07/07 08:27:10;;;;;;;6.78;1.15;;;;;;;;;;5141876;27;20087;-68
2022/07/07 08:29:39;;;;;;;6.63;1.38;;;;;;;;;;5152165;27;20070;-67
2022/07/07 08:32:10;;;;;;;7.00;1.00;;;;;;;;;;5146586;27;20481;-67
2022/07/07 08:34:38;;;;;;;8.52;1.13;;;;;;;;;;5144951;27;20461;-67
2022/07/07 08:37:05;;;;;;;10.93;0.95;;;;;;;;;;5143832;27;20054;-67
2022/07/07 08:39:32;;;;;;;4.00;0.98;;;;;;;;;;5143540;27;20121;-67
2022/07/07 08:41:58;;;;;;;5.75;0.70;;;;;;;;;;5140151;27;20041;-68
2022/07/07 08:44:24;;;;;;;5.55;1.00;;;;;;;;;;5141509;27;20435;-67
2022/07/07 08:46:50;;;;;;;4.60;0.93;;;;;;;;;;5124477;27;20071;-68
2022/07/07 08:49:16;;;;;;;4.90;1.00;;;;;;;;;;5127951;27;20527;-68
2022/07/07 08:51:43;;;;;;;4.10;0.88;;;;;;;;;;5129882;27;20038;-69
2022/07/07 08:54:10;;;;;;;4.78;0.70;;;;;;;;;;5126325;27;20574;-67
2022/07/07 08:56:38;;;;;;;10.88;1.33;;;;;;;;;;5128081;27;20027;-67
2022/07/07 08:59:05;;;;;;;5.68;0.88;;;;;;;;;;5125322;27;20045;-67
2022/07/07 09:01:31;;;;;;;8.30;1.25;;;;;;;;;;5122789;27;20046;-67
2022/07/07 09:03:57;;;;;;;4.82;1.00;;;;;;;;;;5123817;27;20141;-68
2022/07/07 09:06:24;;;;;;;4.57;1.05;;;;;;;;;;5138152;27;20054;-68
2022/07/07 09:08:51;;;;;;;7.90;1.27;;;;;;;;;;5149886;27;20053;-68
2022/07/07 09:11:24;;;;;;;4.40;1.30;;;;;;;;;;5143951;27;20417;-68
2022/07/07 09:13:50;;;;;;;6.30;1.10;;;;;;;;;;5147104;27;20166;-68
2022/07/07 09:16:17;;;;;;;5.38;1.63;;;;;;;;;;5141020;27;20046;-68
2022/07/07 09:18:47;;;;;;;9.02;1.65;;;;;;;;;;5142345;27;20042;-68
2022/07/07 09:21:29;;;;;;;3.00;1.00;;;;;;;;;;5131961;27;21425;-68
2022/07/07 09:24:05;;;;;;;6.50;1.38;;;;;;;;;;5123296;27;20043;-69
2022/07/07 09:26:39;;;;;;;7.30;1.33;;;;;;;;;;5128199;27;20039;-69
2022/07/07 09:29:05;;;;;;;5.03;1.25;;;;;;;;;;5124382;27;20034;-68
2022/07/07 09:31:50;;;;;;;6.57;1.50;;;;;;;;;;5137070;27;20074;-69
2022/07/07 09:34:16;;;;;;;4.80;1.20;;;;;;;;;;5137157;27;20042;-68
2022/07/07 09:39:38;;;;;;;6.25;1.35;;;;;;;;;;5143073;27;20050;-68
2022/07/07 09:42:17;;;;;;;7.15;1.60;;;;;;;;;;5145086;27;20035;-67
2022/07/07 09:44:43;;;;;;;6.65;1.60;;;;;;;;;;5132489;27;20028;-68
2022/07/07 09:47:10;;;;;;;7.45;2.17;;;;;;;;;;5133660;27;20070;-68
2022/07/07 09:49:41;;;;;;;4.50;1.80;;;;;;;;;;5138070;27;20405;-68
2022/07/07 09:52:17;;;;;;;8.68;1.67;;;;;;;;;;5139426;27;20035;-68
2022/07/07 09:54:47;;;;;;;8.52;1.63;;;;;;;;;;5130425;27;20035;-68
2022/07/07 09:57:13;;;;;;;9.15;1.60;;;;;;;;;;5132862;27;20150;-68
2022/07/07 09:59:41;;;;;;;8.00;2.00;;;;;;;;;;5130110;27;20047;-68
2022/07/07 10:02:08;;;;;;;8.57;1.85;;;;;;;;;;5132424;27;20039;-68
2022/07/07 10:04:35;;;;;;;6.82;1.38;;;;;;;;;;5140277;27;20054;-67
2022/07/07 10:07:02;;;;;;;6.40;1.50;;;;;;;;;;5144341;27;20078;-67
2022/07/07 10:09:28;;;;;;;4.57;1.35;;;;;;;;;;5132415;27;20046;-68
2022/07/07 10:11:54;;;;;;;6.82;1.30;;;;;;;;;;5131024;27;20033;-68
2022/07/07 10:14:21;;;;;;;10.02;1.52;;;;;;;;;;5136544;27;20076;-68
2022/07/07 10:16:52;;;;;;;6.72;2.00;;;;;;;;;;5140500;27;20047;-68
2022/07/07 10:19:20;;;;;;;8.38;1.60;;;;;;;;;;5148504;27;20414;-67
2022/07/07 10:21:48;;;;;;;4.07;1.17;;;;;;;;;;5151358;27;20084;-67
2022/07/07 10:24:15;;;;;;;4.75;1.55;;;;;;;;;;5134590;27;20542;-68
2022/07/07 10:26:42;;;;;;;3.67;0.90;;;;;;;;;;5129173;27;20039;-67
2022/07/07 10:29:10;;;;;;;7.18;1.10;;;;;;;;;;5142277;27;20042;-67
2022/07/07 10:31:36;;;;;;;4.22;1.10;;;;;;;;;;5137629;27;20049;-67
2022/07/07 10:34:08;;;;;;;5.28;1.20;;;;;;;;;;5155559;27;20389;-67
2022/07/07 10:36:46;;;;;;;5.68;1.30;;;;;;;;;;5154986;27;20095;-68
2022/07/07 10:39:16;;;;;;;5.15;1.20;;;;;;;;;;5155002;27;20055;-67
2022/07/07 10:41:53;;;;;;;7.50;1.65;;;;;;;;;;5154360;27;20049;-68
2022/07/07 10:44:20;;;;;;;6.15;1.45;;;;;;;;;;5155692;27;20038;-68
2022/07/07 10:47:06;;;;;;;9.38;1.50;;;;;;;;;;5155673;27;20038;-67
2022/07/07 10:49:42;;;;;;;7.38;1.38;;;;;;;;;;5136391;27;20095;-68
2022/07/07 10:52:11;;;;;;;7.13;1.30;;;;;;;;;;5147632;27;20045;-68
2022/07/07 10:54:43;;;;;;;8.75;1.65;;;;;;;;;;5154916;27;20074;-69
2022/07/07 10:57:10;;;;;;;8.82;1.40;;;;;;;;;;5143132;27;20039;-68
2022/07/07 10:59:56;;;;;;;7.10;1.70;;;;;;;;;;5137090;27;20095;-68
2022/07/07 11:02:31;;;;;;;5.00;1.20;;;;;;;;;;5131756;27;20066;-67
2022/07/07 11:04:58;;;;;;;7.40;1.50;;;;;;;;;;5128268;27;20473;-67
2022/07/07 11:07:25;;;;;;;7.63;1.48;;;;;;;;;;5131723;27;20139;-67
2022/07/07 11:10:11;;;;;;;7.13;1.67;;;;;;;;;;5125510;27;20050;-67
2022/07/07 11:12:37;;;;;;;4.90;1.20;;;;;;;;;;5127096;27;20031;-67
2022/07/07 11:15:15;;;;;;;7.68;1.45;;;;;;;;;;5128176;27;20047;-67
2022/07/07 11:17:56;;;;;;;8.63;1.40;;;;;;;;;;5125414;27;20043;-68
2022/07/07 11:20:26;;;;;;;8.80;1.88;;;;;;;;;;5130757;27;20077;-68
2022/07/07 11:22:54;;;;;;;5.57;1.35;;;;;;;;;;5131858;27;20103;-68
2022/07/07 11:25:21;;;;;;;11.77;1.80;;;;;;;;;;5128913;27;20042;-68
2022/07/07 11:27:48;;;;;;;6.07;1.63;;;;;;;;;;5130643;27;20042;-68
2022/07/07 11:30:14;;;;;;;11.60;1.95;;;;;;;;;;5131693;27;20106;-68
2022/07/07 11:32:41;;;;;;;6.22;1.52;;;;;;;;;;5131546;27;20035;-68
2022/07/07 11:35:08;;;;;;;11.77;1.85;;;;;;;;;;5133240;27;20426;-68
2022/07/07 11:37:37;;;;;;;11.90;2.30;;;;;;;;;;5133049;27;20038;-68
2022/07/07 11:40:04;;;;;;;9.40;2.08;;;;;;;;;;5128411;27;20123;-68
2022/07/07 11:42:36;;;;;;;13.77;2.25;;;;;;;;;;5127752;27;20397;-68
2022/07/07 11:45:02;;;;;;;11.73;1.90;;;;;;;;;;5130506;27;20041;-69
2022/07/07 11:47:36;;;;;;;14.50;2.25;;;;;;;;;;5128515;27;20504;-68
2022/07/07 11:50:02;;;;;;;17.58;2.70;;;;;;;;;;5131339;27;20035;-68
2022/07/07 11:52:28;;;;;;;13.20;2.50;;;;;;;;;;5126967;27;20063;-68
2022/07/07 11:54:54;;;;;;;13.32;2.35;;;;;;;;;;5125225;27;20034;-68
2022/07/07 11:57:31;;;;;;;14.55;2.28;;;;;;;;;;5125344;27;20118;-68
2022/07/07 12:00:09;;;;;;;16.63;2.53;;;;;;;;;;5125738;27;20526;-68
2022/07/07 12:02:35;;;;;;;17.60;2.75;;;;;;;;;;5123558;27;20046;-68
2022/07/07 12:05:02;;;;;;;15.27;2.65;;;;;;;;;;5126370;27;20157;-68
2022/07/07 12:07:28;;;;;;;12.60;2.20;;;;;;;;;;5126734;27;20035;-68
2022/07/07 12:09:54;;;;;;;14.20;3.13;;;;;;;;;;5127068;27;20042;-68
2022/07/07 12:12:20;;;;;;;15.63;2.17;;;;;;;;;;5127506;27;20804;-68
2022/07/07 12:14:46;;;;;;;7.30;1.77;;;;;;;;;;5120311;27;20035;-68
2022/07/07 12:17:12;;;;;;;16.10;1.73;;;;;;;;;;5127772;27;20516;-68
2022/07/07 12:19:48;;;;;;;8.88;1.77;;;;;;;;;;5139589;27;20412;-68
2022/07/07 12:22:14;;;;;;;9.23;1.95;;;;;;;;;;5153078;27;20385;-69
2022/07/07 12:24:41;;;;;;;12.15;1.83;;;;;;;;;;5153974;27;20045;-68
2022/07/07 12:27:17;;;;;;;14.85;1.77;;;;;;;;;;5152317;27;20039;-69
2022/07/07 12:29:59;;;;;;;12.07;2.20;;;;;;;;;;5118501;27;20046;-68
2022/07/07 12:32:26;;;;;;;7.45;1.65;;;;;;;;;;5141877;27;20046;-68
2022/07/07 12:34:52;;;;;;;11.88;2.22;;;;;;;;;;5153420;27;20074;-67
2022/07/07 12:37:18;;;;;;;12.05;1.83;;;;;;;;;;5153233;27;20087;-67
2022/07/07 12:39:44;;;;;;;10.10;1.63;;;;;;;;;;5153068;27;20121;-68
2022/07/07 12:42:10;;;;;;;12.40;1.98;;;;;;;;;;5152367;27;20433;-68
2022/07/07 12:44:36;;;;;;;12.52;1.80;;;;;;;;;;5129770;27;20088;-68
2022/07/07 12:47:02;;;;;;;10.02;1.63;;;;;;;;;;5141804;27;20045;-69
2022/07/07 12:49:29;;;;;;;10.00;2.50;;;;;;;;;;5139894;27;20630;-68
2022/07/07 12:51:55;;;;;;;11.38;2.05;;;;;;;;;;5144122;27;20039;-68
2022/07/07 12:54:25;;;;;;;10.93;2.17;;;;;;;;;;5141413;27;20062;-68
2022/07/07 12:57:00;;;;;;;12.73;1.60;;;;;;;;;;5133692;27;20039;-68
2022/07/07 12:59:26;;;;;;;10.35;1.80;;;;;;;;;;5125722;27;20053;-68
2022/07/07 13:01:54;;;;;;;9.10;2.05;;;;;;;;;;5127479;27;20385;-69
2022/07/07 13:04:20;;;;;;;11.18;2.30;;;;;;;;;;5125434;27;20100;-68
2022/07/07 13:06:48;;;;;;;12.60;2.00;;;;;;;;;;5125468;27;20042;-68
2022/07/07 13:09:14;;;;;;;12.43;2.20;;;;;;;;;;5120467;27;20039;-68
2022/07/07 13:11:41;;;;;;;10.65;1.98;;;;;;;;;;5128509;27;20038;-68
2022/07/07 13:14:07;;;;;;;11.77;2.05;;;;;;;;;;5152333;27;20039;-68
2022/07/07 13:16:33;;;;;;;12.02;1.88;;;;;;;;;;5152410;27;20157;-68
2022/07/07 13:18:59;;;;;;;11.85;2.22;;;;;;;;;;5126301;27;20378;-68
2022/07/07 13:21:25;;;;;;;13.80;2.38;;;;;;;;;;5124131;27;20067;-68
2022/07/07 13:23:51;;;;;;;9.65;1.48;;;;;;;;;;5126789;27;20512;-67
2022/07/07 13:26:17;;;;;;;10.05;1.83;;;;;;;;;;5121538;27;20039;-68
2022/07/07 13:28:43;;;;;;;6.80;1.60;;;;;;;;;;5124270;27;20034;-67
2022/07/07 13:31:09;;;;;;;11.00;1.83;;;;;;;;;;5121853;27;20030;-68
2022/07/07 13:33:35;;;;;;;15.50;2.20;;;;;;;;;;5123664;27;20031;-68
2022/07/07 13:36:01;;;;;;;15.73;2.40;;;;;;;;;;5124621;27;20411;-69
2022/07/07 13:38:27;;;;;;;12.50;2.00;;;;;;;;;;5140032;27;20042;-69
2022/07/07 13:40:53;;;;;;;9.38;1.67;;;;;;;;;;5131024;27;20047;-68
2022/07/07 13:43:20;;;;;;;9.50;2.17;;;;;;;;;;5141600;27;20054;-68
2022/07/07 13:45:46;;;;;;;12.00;2.08;;;;;;;;;;5151771;27;20482;-68
2022/07/07 13:48:12;;;;;;;7.40;1.58;;;;;;;;;;5151974;27;20400;-68
2022/07/07 13:50:39;;;;;;;10.20;1.80;;;;;;;;;;5152823;27;20045;-68
2022/07/07 13:53:05;;;;;;;9.98;1.98;;;;;;;;;;5152419;27;20734;-68
2022/07/07 13:55:31;;;;;;;15.85;1.98;;;;;;;;;;5135739;27;20466;-68
2022/07/07 13:57:58;;;;;;;12.70;1.98;;;;;;;;;;5152624;27;20064;-68
2022/07/07 14:00:24;;;;;;;10.30;1.90;;;;;;;;;;5152476;27;20484;-68
2022/07/07 14:02:50;;;;;;;13.60;2.50;;;;;;;;;;5151573;27;20031;-68
2022/07/07 14:05:17;;;;;;;18.55;3.08;;;;;;;;;;5151470;27;20461;-68
2022/07/07 14:07:43;;;;;;;12.25;2.70;;;;;;;;;;5152274;27;20061;-68
2022/07/07 14:10:10;;;;;;;14.32;2.10;;;;;;;;;;5151972;27;20429;-68
2022/07/07 14:12:36;;;;;;;8.15;1.60;;;;;;;;;;5152360;27;20038;-68
2022/07/07 14:15:02;;;;;;;11.07;1.63;;;;;;;;;;5145528;27;20382;-68
2022/07/07 14:17:29;;;;;;;10.48;1.60;;;;;;;;;;5125770;27;20047;-68
2022/07/07 14:19:55;;;;;;;11.23;2.30;;;;;;;;;;5145453;27;20078;-68
2022/07/07 14:22:21;;;;;;;11.80;1.73;;;;;;;;;;5126714;27;20077;-68
2022/07/07 14:24:47;;;;;;;7.88;1.30;;;;;;;;;;5134305;27;20031;-68
2022/07/07 14:27:13;;;;;;;14.05;1.88;;;;;;;;;;5115137;27;20100;-68
2022/07/07 14:29:39;;;;;;;9.27;1.98;;;;;;;;;;5150684;27;20039;-68
2022/07/07 14:32:06;;;;;;;11.38;2.60;;;;;;;;;;5151712;27;20031;-68
2022/07/07 14:34:32;;;;;;;12.77;2.30;;;;;;;;;;5152235;27;20046;-68
2022/07/07 14:36:58;;;;;;;12.85;2.33;;;;;;;;;;5154632;27;20091;-68
2022/07/07 14:39:24;;;;;;;13.05;1.63;;;;;;;;;;5131953;27;20489;-68
2022/07/07 14:41:51;;;;;;;17.25;2.13;;;;;;;;;;5155716;27;20068;-68